createdAt,value
2019-01-13T00:00:57.990Z,1004.42
2019-01-13T00:01:57.954Z,1004.40
2019-01-13T00:02:57.918Z,1004.41
2019-01-13T00:03:57.879Z,1004.41
2019-01-13T00:05:06.521Z,1004.42
2019-01-13T00:07:02.264Z,1004.53
2019-01-13T00:08:02.211Z,1004.45
2019-01-13T00:09:02.173Z,1004.50
2019-01-13T00:10:02.140Z,1004.48
2019-01-13T00:11:02.100Z,1004.43
2019-01-13T00:12:02.068Z,1004.47
2019-01-13T00:13:02.075Z,1004.47
2019-01-13T00:14:01.995Z,1004.45
2019-01-13T00:15:01.959Z,1004.43
2019-01-13T00:16:01.923Z,1004.41
2019-01-13T00:17:01.884Z,1004.40
2019-01-13T00:18:01.852Z,1004.37
2019-01-13T00:19:01.810Z,1004.38
2019-01-13T00:20:01.778Z,1004.38
2019-01-13T00:21:01.736Z,1004.36
2019-01-13T00:22:01.700Z,1004.41
2019-01-13T00:23:01.666Z,1004.44
2019-01-13T00:24:01.625Z,1004.42
2019-01-13T00:25:01.599Z,1004.47
2019-01-13T00:26:01.571Z,1004.44
2019-01-13T00:27:01.520Z,1004.40
2019-01-13T00:28:01.485Z,1004.36
2019-01-13T00:29:01.446Z,1004.34
2019-01-13T00:30:01.413Z,1004.34
2019-01-13T00:31:01.385Z,1004.33
2019-01-13T00:32:01.345Z,1004.31
2019-01-13T00:33:01.306Z,1004.27
2019-01-13T00:34:01.271Z,1004.30
2019-01-13T00:35:01.235Z,1004.32
2019-01-13T00:36:01.199Z,1004.31
2019-01-13T00:37:01.159Z,1004.33
2019-01-13T00:38:01.129Z,1004.34
2019-01-13T00:39:01.090Z,1004.32
2019-01-13T00:40:01.050Z,1004.36
2019-01-13T00:41:01.021Z,1004.34
2019-01-13T00:42:00.981Z,1004.30
2019-01-13T00:43:00.953Z,1004.31
2019-01-13T00:44:00.913Z,1004.35
2019-01-13T00:45:00.876Z,1004.39
2019-01-13T00:46:00.836Z,1004.36
2019-01-13T00:47:00.789Z,1004.40
2019-01-13T00:48:00.770Z,1004.34
2019-01-13T00:49:00.732Z,1004.35
2019-01-13T00:50:00.697Z,1004.34
2019-01-13T00:51:00.654Z,1004.41
2019-01-13T00:52:00.617Z,1004.37
2019-01-13T00:53:00.600Z,1004.40
2019-01-13T00:54:00.557Z,1004.36
2019-01-13T00:55:00.508Z,1004.36
2019-01-13T00:56:00.476Z,1004.34
2019-01-13T00:57:00.437Z,1004.33
2019-01-13T00:58:00.401Z,1004.34
2019-01-13T00:59:00.376Z,1004.34
2019-01-13T01:00:00.338Z,1004.40
2019-01-13T01:01:00.297Z,1004.35
2019-01-13T01:02:00.267Z,1004.33
2019-01-13T01:03:00.229Z,1004.37
2019-01-13T01:04:00.195Z,1004.31
2019-01-13T01:05:00.230Z,1004.30
2019-01-13T01:06:00.128Z,1004.24
2019-01-13T01:07:00.084Z,1004.24
2019-01-13T01:08:00.047Z,1004.24
2019-01-13T01:09:00.017Z,1004.25
2019-01-13T01:09:59.978Z,1004.25
2019-01-13T01:10:59.935Z,1004.22
2019-01-13T01:11:59.921Z,1004.24
2019-01-13T01:12:59.873Z,1004.17
2019-01-13T01:13:59.832Z,1004.21
2019-01-13T01:14:59.801Z,1004.14
2019-01-13T01:15:59.757Z,1004.17
2019-01-13T01:16:59.724Z,1004.12
2019-01-13T01:17:59.692Z,1004.13
2019-01-13T01:18:59.653Z,1004.06
2019-01-13T01:19:59.612Z,1004.10
2019-01-13T01:20:59.583Z,1004.06
2019-01-13T01:21:59.538Z,1004.10
2019-01-13T01:22:59.513Z,1004.02
2019-01-13T01:23:59.474Z,1004.06
2019-01-13T01:24:59.458Z,1004.07
2019-01-13T01:25:59.398Z,1004.09
2019-01-13T01:26:59.363Z,1004.07
2019-01-13T01:27:59.328Z,1004.05
2019-01-13T01:28:59.294Z,1004.01
2019-01-13T01:29:59.262Z,1003.96
2019-01-13T01:30:59.219Z,1003.97
2019-01-13T01:31:59.182Z,1003.90
2019-01-13T01:32:59.164Z,1003.88
2019-01-13T01:33:59.109Z,1003.89
2019-01-13T01:34:59.074Z,1003.90
2019-01-13T01:35:59.043Z,1003.86
2019-01-13T01:36:59.028Z,1003.87
2019-01-13T01:37:58.965Z,1003.94
2019-01-13T01:38:58.925Z,1003.96
2019-01-13T01:39:58.906Z,1004.02
2019-01-13T01:40:58.884Z,1003.98
2019-01-13T01:41:58.869Z,1003.98
2019-01-13T01:42:58.804Z,1004.04
2019-01-13T01:43:58.754Z,1004.06
2019-01-13T01:44:58.745Z,1004.02
2019-01-13T01:45:58.710Z,1004.09
2019-01-13T01:46:58.644Z,1004.12
2019-01-13T01:47:58.629Z,1004.13
2019-01-13T01:48:58.576Z,1004.12
2019-01-13T01:49:58.538Z,1004.07
2019-01-13T01:50:58.520Z,1004.04
2019-01-13T01:51:58.481Z,1004.08
2019-01-13T01:52:58.435Z,1004.05
2019-01-13T01:53:58.414Z,1004.03
2019-01-13T01:54:58.391Z,1004.06
2019-01-13T01:55:58.335Z,1004.01
2019-01-13T01:56:58.285Z,1003.98
2019-01-13T01:57:58.280Z,1003.92
2019-01-13T01:58:58.234Z,1003.89
2019-01-13T01:59:58.176Z,1003.94
2019-01-13T02:00:58.145Z,1003.89
2019-01-13T02:01:58.100Z,1003.88
2019-01-13T02:02:58.061Z,1003.89
2019-01-13T02:03:58.035Z,1003.88
2019-01-13T02:04:58.032Z,1003.88
2019-01-13T02:05:57.954Z,1003.83
2019-01-13T02:06:57.924Z,1003.86
2019-01-13T02:07:57.923Z,1003.85
2019-01-13T02:08:57.868Z,1003.80
2019-01-13T02:09:57.878Z,1003.80
2019-01-13T02:10:57.787Z,1003.78
2019-01-13T02:11:57.753Z,1003.74
2019-01-13T02:12:57.717Z,1003.70
2019-01-13T02:13:57.676Z,1003.72
2019-01-13T02:14:57.641Z,1003.69
2019-01-13T02:15:57.604Z,1003.71
2019-01-13T02:16:57.566Z,1003.67
2019-01-13T02:17:57.533Z,1003.71
2019-01-13T02:18:57.496Z,1003.73
2019-01-13T02:19:57.462Z,1003.73
2019-01-13T02:20:57.426Z,1003.71
2019-01-13T02:21:57.392Z,1003.80
2019-01-13T02:22:57.357Z,1003.70
2019-01-13T02:23:57.312Z,1003.69
2019-01-13T02:24:57.285Z,1003.67
2019-01-13T02:25:57.246Z,1003.60
2019-01-13T02:26:57.214Z,1003.57
2019-01-13T02:27:57.167Z,1003.54
2019-01-13T02:28:57.143Z,1003.52
2019-01-13T02:29:57.101Z,1003.46
2019-01-13T02:30:57.057Z,1003.41
2019-01-13T02:31:57.027Z,1003.39
2019-01-13T02:32:56.987Z,1003.40
2019-01-13T02:33:56.952Z,1003.36
2019-01-13T02:34:56.924Z,1003.44
2019-01-13T02:35:56.886Z,1003.40
2019-01-13T02:36:56.848Z,1003.34
2019-01-13T02:37:56.815Z,1003.33
2019-01-13T02:38:56.781Z,1003.25
2019-01-13T02:39:56.741Z,1003.31
2019-01-13T02:40:56.713Z,1003.27
2019-01-13T02:41:56.663Z,1003.31
2019-01-13T02:42:56.627Z,1003.30
2019-01-13T02:43:56.586Z,1003.31
2019-01-13T02:44:56.557Z,1003.32
2019-01-13T02:45:56.527Z,1003.33
2019-01-13T02:46:56.488Z,1003.30
2019-01-13T02:47:56.456Z,1003.32
2019-01-13T02:48:56.413Z,1003.29
2019-01-13T02:49:56.379Z,1003.28
2019-01-13T02:50:56.336Z,1003.26
2019-01-13T02:51:56.310Z,1003.25
2019-01-13T02:52:56.279Z,1003.28
2019-01-13T02:53:56.238Z,1003.24
2019-01-13T02:54:56.196Z,1003.24
2019-01-13T02:55:56.162Z,1003.24
2019-01-13T02:56:56.124Z,1003.25
2019-01-13T02:57:56.094Z,1003.29
2019-01-13T02:58:56.056Z,1003.27
2019-01-13T02:59:56.022Z,1003.26
2019-01-13T03:00:57.299Z,1003.27
2019-01-13T03:01:55.947Z,1003.26
2019-01-13T03:02:55.912Z,1003.23
2019-01-13T03:03:55.881Z,1003.24
2019-01-13T03:04:55.843Z,1003.18
2019-01-13T03:05:55.810Z,1003.26
2019-01-13T03:06:55.768Z,1003.25
2019-01-13T03:07:55.738Z,1003.30
2019-01-13T03:08:55.693Z,1003.32
2019-01-13T03:09:55.659Z,1003.29
2019-01-13T03:10:55.628Z,1003.34
2019-01-13T03:11:55.594Z,1003.31
2019-01-13T03:12:55.557Z,1003.32
2019-01-13T03:13:55.515Z,1003.30
2019-01-13T03:14:55.482Z,1003.27
2019-01-13T03:15:55.447Z,1003.29
2019-01-13T03:16:55.413Z,1003.30
2019-01-13T03:17:55.363Z,1003.34
2019-01-13T03:18:55.334Z,1003.26
2019-01-13T03:19:55.300Z,1003.33
2019-01-13T03:20:55.264Z,1003.37
2019-01-13T03:21:55.235Z,1003.29
2019-01-13T03:22:55.201Z,1003.31
2019-01-13T03:23:55.159Z,1003.30
2019-01-13T03:24:55.117Z,1003.31
2019-01-13T03:25:55.087Z,1003.32
2019-01-13T03:26:55.048Z,1003.30
2019-01-13T03:27:54.997Z,1003.40
2019-01-13T03:28:54.976Z,1003.39
2019-01-13T03:29:54.935Z,1003.36
2019-01-13T03:30:54.911Z,1003.30
2019-01-13T03:31:54.866Z,1003.26
2019-01-13T03:32:54.836Z,1003.23
2019-01-13T03:33:54.793Z,1003.25
2019-01-13T03:34:54.759Z,1003.25
2019-01-13T03:35:54.734Z,1003.21
2019-01-13T03:36:54.679Z,1003.21
2019-01-13T03:37:54.650Z,1003.25
2019-01-13T03:38:54.614Z,1003.19
2019-01-13T03:39:54.575Z,1003.20
2019-01-13T03:40:54.541Z,1003.19
2019-01-13T03:41:54.510Z,1003.19
2019-01-13T03:42:54.466Z,1003.15
2019-01-13T03:43:54.440Z,1003.10
2019-01-13T03:44:54.404Z,1003.13
2019-01-13T03:45:54.359Z,1003.10
2019-01-13T03:46:54.324Z,1003.11
2019-01-13T03:47:54.289Z,1003.08
2019-01-13T03:48:54.259Z,1003.12
2019-01-13T03:49:54.222Z,1003.17
2019-01-13T03:50:54.184Z,1003.16
2019-01-13T03:51:54.154Z,1003.12
2019-01-13T03:52:54.114Z,1003.07
2019-01-13T03:53:54.075Z,1003.06
2019-01-13T03:54:54.041Z,1003.03
2019-01-13T03:55:54.032Z,1002.97
2019-01-13T03:56:53.968Z,1002.86
2019-01-13T03:57:53.935Z,1002.89
2019-01-13T03:58:53.896Z,1002.83
2019-01-13T03:59:53.863Z,1002.76
2019-01-13T04:00:53.835Z,1002.73
2019-01-13T04:01:53.793Z,1002.69
2019-01-13T04:02:53.747Z,1002.64
2019-01-13T04:03:53.712Z,1002.67
2019-01-13T04:04:53.681Z,1002.64
2019-01-13T04:05:53.648Z,1002.58
2019-01-13T04:06:53.604Z,1002.49
2019-01-13T04:07:53.584Z,1002.50
2019-01-13T04:08:53.529Z,1002.53
2019-01-13T04:09:53.499Z,1002.49
2019-01-13T04:10:53.460Z,1002.50
2019-01-13T04:11:53.420Z,1002.53
2019-01-13T04:12:53.394Z,1002.51
2019-01-13T04:13:53.356Z,1002.50
2019-01-13T04:14:53.320Z,1002.51
2019-01-13T04:15:53.283Z,1002.53
2019-01-13T04:16:53.250Z,1002.50
2019-01-13T04:17:53.215Z,1002.49
2019-01-13T04:18:53.177Z,1002.48
2019-01-13T04:19:53.150Z,1002.51
2019-01-13T04:20:53.110Z,1002.49
2019-01-13T04:21:53.067Z,1002.47
2019-01-13T04:22:53.031Z,1002.43
2019-01-13T04:23:52.994Z,1002.42
2019-01-13T04:24:52.957Z,1002.36
2019-01-13T04:25:52.925Z,1002.42
2019-01-13T04:26:52.895Z,1002.41
2019-01-13T04:27:52.848Z,1002.36
2019-01-13T04:28:52.811Z,1002.34
2019-01-13T04:29:52.783Z,1002.31
2019-01-13T04:30:52.750Z,1002.24
2019-01-13T04:31:52.706Z,1002.22
2019-01-13T04:32:52.676Z,1002.18
2019-01-13T04:33:52.642Z,1002.13
2019-01-13T04:34:52.603Z,1002.18
2019-01-13T04:35:52.577Z,1002.14
2019-01-13T04:36:52.530Z,1002.12
2019-01-13T04:37:52.488Z,1002.06
2019-01-13T04:38:52.457Z,1002.03
2019-01-13T04:39:52.438Z,1002.02
2019-01-13T04:40:52.394Z,1002.00
2019-01-13T04:41:52.353Z,1001.98
2019-01-13T04:42:52.309Z,1001.91
2019-01-13T04:43:52.279Z,1001.91
2019-01-13T04:44:52.236Z,1001.90
2019-01-13T04:45:52.197Z,1001.90
2019-01-13T04:46:52.172Z,1001.87
2019-01-13T04:47:52.129Z,1001.87
2019-01-13T04:48:52.100Z,1001.82
2019-01-13T04:49:52.066Z,1001.89
2019-01-13T04:50:52.025Z,1001.79
2019-01-13T04:51:51.997Z,1001.81
2019-01-13T04:52:51.959Z,1001.81
2019-01-13T04:53:51.926Z,1001.88
2019-01-13T04:54:51.882Z,1001.85
2019-01-13T04:55:51.849Z,1001.90
2019-01-13T04:56:51.807Z,1001.87
2019-01-13T04:57:51.780Z,1001.90
2019-01-13T04:58:51.742Z,1001.90
2019-01-13T04:59:51.707Z,1001.86
2019-01-13T05:00:51.662Z,1001.87
2019-01-13T05:01:51.637Z,1001.79
2019-01-13T05:02:51.599Z,1001.76
2019-01-13T05:03:51.560Z,1001.75
2019-01-13T05:04:51.521Z,1001.74
2019-01-13T05:05:51.489Z,1001.76
2019-01-13T05:06:51.448Z,1001.77
2019-01-13T05:07:51.418Z,1001.67
2019-01-13T05:08:51.388Z,1001.65
2019-01-13T05:09:51.354Z,1001.56
2019-01-13T05:10:51.316Z,1001.54
2019-01-13T05:11:51.270Z,1001.52
2019-01-13T05:12:51.234Z,1001.51
2019-01-13T05:13:51.204Z,1001.44
2019-01-13T05:14:51.171Z,1001.40
2019-01-13T05:15:51.135Z,1001.37
2019-01-13T05:16:51.094Z,1001.36
2019-01-13T05:17:51.056Z,1001.37
2019-01-13T05:18:51.024Z,1001.29
2019-01-13T05:19:50.983Z,1001.29
2019-01-13T05:20:50.950Z,1001.23
2019-01-13T05:21:50.919Z,1001.22
2019-01-13T05:22:50.873Z,1001.26
2019-01-13T05:23:50.834Z,1001.25
2019-01-13T05:24:50.805Z,1001.27
2019-01-13T05:25:50.771Z,1001.16
2019-01-13T05:26:50.729Z,1001.13
2019-01-13T05:27:50.696Z,1001.11
2019-01-13T05:28:50.701Z,1001.12
2019-01-13T05:29:50.636Z,1001.05
2019-01-13T05:30:50.590Z,1001.06
2019-01-13T05:31:50.555Z,1001.04
2019-01-13T05:32:50.542Z,1001.03
2019-01-13T05:33:50.479Z,1000.99
2019-01-13T05:34:50.446Z,1000.96
2019-01-13T05:35:50.411Z,1000.95
2019-01-13T05:36:50.386Z,1000.89
2019-01-13T05:37:50.345Z,1000.86
2019-01-13T05:38:50.305Z,1000.84
2019-01-13T05:39:50.279Z,1000.80
2019-01-13T05:40:50.235Z,1000.84
2019-01-13T05:41:50.193Z,1000.84
2019-01-13T05:42:50.168Z,1000.78
2019-01-13T05:43:50.132Z,1000.71
2019-01-13T05:44:50.099Z,1000.63
2019-01-13T05:45:50.045Z,1000.59
2019-01-13T05:46:50.016Z,1000.54
2019-01-13T05:47:49.987Z,1000.51
2019-01-13T05:48:49.950Z,1000.49
2019-01-13T05:49:49.910Z,1000.58
2019-01-13T05:50:49.874Z,1000.55
2019-01-13T05:51:49.830Z,1000.60
2019-01-13T05:52:49.805Z,1000.62
2019-01-13T05:53:49.767Z,1000.59
2019-01-13T05:54:49.735Z,1000.61
2019-01-13T05:55:49.700Z,1000.65
2019-01-13T05:56:49.663Z,1000.62
2019-01-13T05:57:49.623Z,1000.61
2019-01-13T05:58:49.592Z,1000.58
2019-01-13T05:59:49.597Z,1000.51
2019-01-13T06:00:49.525Z,1000.51
2019-01-13T06:01:49.525Z,1000.54
2019-01-13T06:02:49.448Z,1000.56
2019-01-13T06:03:49.414Z,1000.55
2019-01-13T06:04:49.382Z,1000.48
2019-01-13T06:05:49.350Z,1000.52
2019-01-13T06:06:49.305Z,1000.45
2019-01-13T06:07:49.267Z,1000.47
2019-01-13T06:08:49.243Z,1000.42
2019-01-13T06:09:49.197Z,1000.42
2019-01-13T06:10:49.152Z,1000.37
2019-01-13T06:11:49.127Z,1000.42
2019-01-13T06:12:49.092Z,1000.35
2019-01-13T06:13:49.053Z,1000.37
2019-01-13T06:14:49.018Z,1000.35
2019-01-13T06:15:48.984Z,1000.39
2019-01-13T06:16:48.953Z,1000.37
2019-01-13T06:17:48.915Z,1000.35
2019-01-13T06:18:48.871Z,1000.34
2019-01-13T06:19:48.847Z,1000.33
2019-01-13T06:20:48.811Z,1000.33
2019-01-13T06:21:48.772Z,1000.38
2019-01-13T06:22:48.727Z,1000.38
2019-01-13T06:23:48.702Z,1000.35
2019-01-13T06:24:48.663Z,1000.38
2019-01-13T06:25:48.627Z,1000.36
2019-01-13T06:26:48.586Z,1000.36
2019-01-13T06:27:48.558Z,1000.39
2019-01-13T06:28:48.511Z,1000.38
2019-01-13T06:29:48.486Z,1000.39
2019-01-13T06:30:48.472Z,1000.33
2019-01-13T06:31:48.417Z,1000.32
2019-01-13T06:32:48.371Z,1000.37
2019-01-13T06:33:48.348Z,1000.36
2019-01-13T06:34:48.307Z,1000.39
2019-01-13T06:35:48.269Z,1000.31
2019-01-13T06:36:48.231Z,1000.29
2019-01-13T06:37:48.256Z,1000.36
2019-01-13T06:38:48.166Z,1000.35
2019-01-13T06:39:48.123Z,1000.28
2019-01-13T06:40:48.093Z,1000.29
2019-01-13T06:41:48.058Z,1000.34
2019-01-13T06:42:48.021Z,1000.34
2019-01-13T06:43:47.979Z,1000.33
2019-01-13T06:44:47.957Z,1000.35
2019-01-13T06:45:47.909Z,1000.34
2019-01-13T06:46:47.887Z,1000.37
2019-01-13T06:47:47.839Z,1000.33
2019-01-13T06:48:47.807Z,1000.31
2019-01-13T06:49:47.775Z,1000.33
2019-01-13T06:50:47.730Z,1000.29
2019-01-13T06:51:47.698Z,1000.35
2019-01-13T06:52:47.670Z,1000.36
2019-01-13T06:53:47.627Z,1000.35
2019-01-13T06:54:47.598Z,1000.36
2019-01-13T06:55:47.549Z,1000.31
2019-01-13T06:56:47.527Z,1000.29
2019-01-13T06:57:47.490Z,1000.29
2019-01-13T06:58:47.447Z,1000.31
2019-01-13T06:59:47.408Z,1000.35
2019-01-13T07:00:47.378Z,1000.38
2019-01-13T07:01:47.348Z,1000.37
2019-01-13T07:02:47.310Z,1000.40
2019-01-13T07:03:47.273Z,1000.37
2019-01-13T07:04:47.248Z,1000.34
2019-01-13T07:05:47.208Z,1000.34
2019-01-13T07:06:47.159Z,1000.35
2019-01-13T07:07:47.139Z,1000.34
2019-01-13T07:08:47.084Z,1000.29
2019-01-13T07:09:47.059Z,1000.32
2019-01-13T07:10:47.025Z,1000.23
2019-01-13T07:11:46.988Z,1000.24
2019-01-13T07:12:46.951Z,1000.22
2019-01-13T07:13:46.922Z,1000.25
2019-01-13T07:14:46.871Z,1000.30
2019-01-13T07:15:46.838Z,1000.25
2019-01-13T07:16:46.801Z,1000.29
2019-01-13T07:17:46.773Z,1000.20
2019-01-13T07:18:46.744Z,1000.25
2019-01-13T07:19:46.702Z,1000.22
2019-01-13T07:20:46.665Z,1000.19
2019-01-13T07:21:46.637Z,1000.19
2019-01-13T07:22:46.590Z,1000.15
2019-01-13T07:23:46.564Z,1000.20
2019-01-13T07:24:46.530Z,1000.21
2019-01-13T07:25:46.491Z,1000.21
2019-01-13T07:26:46.454Z,1000.20
2019-01-13T07:27:46.412Z,1000.17
2019-01-13T07:28:46.385Z,1000.19
2019-01-13T07:29:46.342Z,1000.16
2019-01-13T07:30:46.315Z,1000.19
2019-01-13T07:31:46.281Z,1000.17
2019-01-13T07:32:46.235Z,1000.18
2019-01-13T07:33:46.198Z,1000.22
2019-01-13T07:34:46.167Z,1000.19
2019-01-13T07:35:46.132Z,1000.21
2019-01-13T07:36:46.102Z,1000.17
2019-01-13T07:37:46.076Z,1000.16
2019-01-13T07:38:46.030Z,1000.18
2019-01-13T07:39:45.989Z,1000.25
2019-01-13T07:40:45.960Z,1000.16
2019-01-13T07:41:45.917Z,1000.16
2019-01-13T07:42:45.880Z,1000.15
2019-01-13T07:43:45.845Z,1000.15
2019-01-13T07:44:45.817Z,1000.16
2019-01-13T07:45:45.781Z,1000.15
2019-01-13T07:46:45.737Z,1000.11
2019-01-13T07:47:45.705Z,1000.04
2019-01-13T07:48:45.672Z,1000.06
2019-01-13T07:49:45.629Z,1000.08
2019-01-13T07:50:45.660Z,1000.09
2019-01-13T07:51:45.560Z,1000.05
2019-01-13T07:52:45.520Z,1000.08
2019-01-13T07:53:45.497Z,1000.11
2019-01-13T07:54:45.451Z,999.98
2019-01-13T07:55:45.425Z,999.99
2019-01-13T07:56:45.387Z,999.98
2019-01-13T07:57:45.348Z,999.96
2019-01-13T07:58:45.317Z,999.96
2019-01-13T07:59:45.287Z,999.93
2019-01-13T08:00:45.247Z,999.96
2019-01-13T08:01:45.203Z,999.89
2019-01-13T08:02:45.176Z,999.93
2019-01-13T08:03:45.132Z,999.82
2019-01-13T08:04:45.100Z,999.86
2019-01-13T08:05:45.063Z,999.91
2019-01-13T08:06:45.036Z,999.90
2019-01-13T08:07:44.987Z,999.95
2019-01-13T08:08:44.957Z,999.97
2019-01-13T08:09:44.918Z,999.99
2019-01-13T08:10:44.893Z,1000.04
2019-01-13T08:11:44.858Z,1000.02
2019-01-13T08:12:44.819Z,999.95
2019-01-13T08:13:44.772Z,999.89
2019-01-13T08:14:44.752Z,999.90
2019-01-13T08:15:44.713Z,999.88
2019-01-13T08:16:44.672Z,999.83
2019-01-13T08:17:44.643Z,999.86
2019-01-13T08:18:44.597Z,999.83
2019-01-13T08:19:44.563Z,999.85
2019-01-13T08:20:44.534Z,999.83
2019-01-13T08:21:44.494Z,999.79
2019-01-13T08:22:44.459Z,999.75
2019-01-13T08:23:44.425Z,999.80
2019-01-13T08:24:44.391Z,999.80
2019-01-13T08:25:44.354Z,999.84
2019-01-13T08:26:44.314Z,999.81
2019-01-13T08:27:44.288Z,999.84
2019-01-13T08:28:44.238Z,999.84
2019-01-13T08:29:44.216Z,999.85
2019-01-13T08:30:44.178Z,999.79
2019-01-13T08:31:44.156Z,999.78
2019-01-13T08:32:44.113Z,999.89
2019-01-13T08:33:44.072Z,999.84
2019-01-13T08:34:44.043Z,999.91
2019-01-13T08:35:44.004Z,999.84
2019-01-13T08:36:43.961Z,999.88
2019-01-13T08:37:43.943Z,999.82
2019-01-13T08:38:43.899Z,999.78
2019-01-13T08:39:43.858Z,999.79
2019-01-13T08:40:43.822Z,999.70
2019-01-13T08:41:43.788Z,999.78
2019-01-13T08:42:43.760Z,999.68
2019-01-13T08:43:43.719Z,999.59
2019-01-13T08:44:43.676Z,999.68
2019-01-13T08:45:50.096Z,999.55
2019-01-13T08:46:43.619Z,999.57
2019-01-13T08:47:43.584Z,999.55
2019-01-13T08:48:43.610Z,999.61
2019-01-13T08:49:43.641Z,999.50
2019-01-13T08:50:43.633Z,999.52
2019-01-13T08:51:43.886Z,999.47
2019-01-13T08:52:43.435Z,999.53
2019-01-13T08:53:43.705Z,999.49
2019-01-13T08:55:34.674Z,999.44
2019-01-13T08:56:34.618Z,999.43
2019-01-13T08:57:34.601Z,999.50
2019-01-13T08:58:34.545Z,999.47
2019-01-13T08:59:34.530Z,999.57
2019-01-13T09:00:34.475Z,999.54
2019-01-13T09:01:34.446Z,999.51
2019-01-13T09:02:34.395Z,999.52
2019-01-13T09:03:34.366Z,999.47
2019-01-13T09:04:34.329Z,999.47
2019-01-13T09:05:34.290Z,999.50
2019-01-13T09:06:34.259Z,999.56
2019-01-13T09:07:34.221Z,999.49
2019-01-13T09:08:34.180Z,999.53
2019-01-13T09:09:34.155Z,999.55
2019-01-13T09:10:34.119Z,999.58
2019-01-13T09:11:34.085Z,999.65
2019-01-13T09:12:34.041Z,999.59
2019-01-13T09:13:34.010Z,999.52
2019-01-13T09:14:33.975Z,999.60
2019-01-13T09:15:33.935Z,999.54
2019-01-13T09:16:33.909Z,999.56
2019-01-13T09:17:33.871Z,999.60
2019-01-13T09:18:33.826Z,999.53
2019-01-13T09:19:33.799Z,999.54
2019-01-13T09:20:33.764Z,999.51
2019-01-13T09:21:33.742Z,999.44
2019-01-13T09:22:33.691Z,999.43
2019-01-13T09:23:33.654Z,999.36
2019-01-13T09:24:33.625Z,999.43
2019-01-13T09:25:33.596Z,999.39
2019-01-13T09:26:33.558Z,999.39
2019-01-13T09:27:33.519Z,999.35
2019-01-13T09:28:33.478Z,999.36
2019-01-13T09:29:33.451Z,999.38
2019-01-13T09:30:33.409Z,999.27
2019-01-13T09:31:33.384Z,999.27
2019-01-13T09:32:39.375Z,999.20
2019-01-13T09:33:33.302Z,999.18
2019-01-13T09:34:33.272Z,999.15
2019-01-13T09:35:33.231Z,999.18
2019-01-13T09:36:33.202Z,999.13
2019-01-13T09:37:33.166Z,999.16
2019-01-13T09:38:33.126Z,999.16
2019-01-13T09:39:33.088Z,999.12
2019-01-13T09:40:33.062Z,999.15
2019-01-13T09:41:33.020Z,999.13
2019-01-13T09:42:32.983Z,999.07
2019-01-13T09:43:32.951Z,999.06
2019-01-13T09:44:32.977Z,999.11
2019-01-13T09:45:32.876Z,999.08
2019-01-13T09:46:32.848Z,999.13
2019-01-13T09:47:32.818Z,999.18
2019-01-13T09:48:32.777Z,999.14
2019-01-13T09:49:32.732Z,999.19
2019-01-13T09:50:32.702Z,999.18
2019-01-13T09:51:32.673Z,999.30
2019-01-13T09:52:32.632Z,999.18
2019-01-13T09:53:32.587Z,999.17
2019-01-13T09:54:32.567Z,999.18
2019-01-13T09:55:32.539Z,999.12
2019-01-13T09:56:32.487Z,999.14
2019-01-13T09:57:32.456Z,998.99
2019-01-13T09:58:32.411Z,998.99
2019-01-13T09:59:32.382Z,998.98
2019-01-13T10:00:32.348Z,998.96
2019-01-13T10:01:32.318Z,998.87
2019-01-13T10:02:32.274Z,998.81
2019-01-13T10:03:32.252Z,998.76
2019-01-13T10:04:32.209Z,998.90
2019-01-13T10:05:32.168Z,998.99
2019-01-13T10:06:32.142Z,999.04
2019-01-13T10:07:32.107Z,999.04
2019-01-13T10:08:32.074Z,999.07
2019-01-13T10:09:32.040Z,999.05
2019-01-13T10:10:31.992Z,999.08
2019-01-13T10:11:31.957Z,999.09
2019-01-13T10:12:31.923Z,999.05
2019-01-13T10:13:31.895Z,999.06
2019-01-13T10:14:31.857Z,999.06
2019-01-13T10:15:31.823Z,999.10
2019-01-13T10:16:31.787Z,999.06
2019-01-13T10:17:31.745Z,999.08
2019-01-13T10:18:31.719Z,998.96
2019-01-13T10:19:31.684Z,998.98
2019-01-13T10:20:31.640Z,998.93
2019-01-13T10:21:31.611Z,998.90
2019-01-13T10:22:31.573Z,998.83
2019-01-13T10:23:31.535Z,998.84
2019-01-13T10:24:31.515Z,998.82
2019-01-13T10:25:31.458Z,998.77
2019-01-13T10:26:31.432Z,998.74
2019-01-13T10:27:31.400Z,998.72
2019-01-13T10:28:31.379Z,998.70
2019-01-13T10:29:31.350Z,998.63
2019-01-13T10:30:31.297Z,998.67
2019-01-13T10:31:31.252Z,998.70
2019-01-13T10:32:32.555Z,998.64
2019-01-13T10:33:31.184Z,998.67
2019-01-13T10:34:31.287Z,998.57
2019-01-13T10:35:31.755Z,998.60
2019-01-13T10:36:31.200Z,998.63
2019-01-13T10:37:31.208Z,998.71
2019-01-13T10:38:31.065Z,998.78
2019-01-13T10:39:31.026Z,998.70
2019-01-13T10:40:31.100Z,998.64
2019-01-13T10:41:30.964Z,998.54
2019-01-13T10:42:30.886Z,998.54
2019-01-13T10:43:30.870Z,998.55
2019-01-13T10:44:30.946Z,998.52
2019-01-13T10:45:30.786Z,998.45
2019-01-13T10:46:30.820Z,998.46
2019-01-13T10:47:30.695Z,998.47
2019-01-13T10:48:30.654Z,998.47
2019-01-13T10:49:30.614Z,998.54
2019-01-13T10:50:31.202Z,998.49
2019-01-13T10:51:30.554Z,998.51
2019-01-13T10:52:30.508Z,998.49
2019-01-13T10:53:30.483Z,998.42
2019-01-13T10:54:30.442Z,998.41
2019-01-13T10:55:30.404Z,998.42
2019-01-13T10:56:30.366Z,998.37
2019-01-13T10:57:30.339Z,998.42
2019-01-13T10:58:30.296Z,998.36
2019-01-13T10:59:30.278Z,998.26
2019-01-13T11:00:30.290Z,998.25
2019-01-13T11:01:30.316Z,998.18
2019-01-13T11:02:30.186Z,998.08
2019-01-13T11:03:30.211Z,998.15
2019-01-13T11:04:30.111Z,998.08
2019-01-13T11:05:30.087Z,998.07
2019-01-13T11:06:30.070Z,998.02
2019-01-13T11:07:30.101Z,997.95
2019-01-13T11:08:30.002Z,997.94
2019-01-13T11:09:29.947Z,997.88
2019-01-13T11:10:29.920Z,997.97
2019-01-13T11:11:29.895Z,997.95
2019-01-13T11:12:29.862Z,997.95
2019-01-13T11:13:29.792Z,997.91
2019-01-13T11:14:29.732Z,997.89
2019-01-13T11:15:29.858Z,997.89
2019-01-13T11:16:29.777Z,997.86
2019-01-13T11:17:29.679Z,997.84
2019-01-13T11:18:29.625Z,997.77
2019-01-13T11:19:29.694Z,997.78
2019-01-13T11:20:29.810Z,997.84
2019-01-13T11:21:29.506Z,997.76
2019-01-13T11:22:29.492Z,997.78
2019-01-13T11:23:29.480Z,997.74
2019-01-13T11:24:29.458Z,997.73
2019-01-13T11:25:29.373Z,997.77
2019-01-13T11:26:29.345Z,997.74
2019-01-13T11:27:29.307Z,997.72
2019-01-13T11:28:29.277Z,997.68
2019-01-13T11:29:32.809Z,997.73
2019-01-13T11:30:29.221Z,997.67
2019-01-13T11:31:29.167Z,997.63
2019-01-13T11:32:29.167Z,997.61
2019-01-13T11:33:29.153Z,997.65
2019-01-13T11:34:29.058Z,997.62
2019-01-13T11:35:29.026Z,997.57
2019-01-13T11:36:29.162Z,997.58
2019-01-13T11:37:29.007Z,997.51
2019-01-13T11:38:28.917Z,997.61
2019-01-13T11:39:28.867Z,997.62
2019-01-13T11:40:28.886Z,997.56
2019-01-13T11:41:28.787Z,997.57
2019-01-13T11:42:28.751Z,997.50
2019-01-13T11:43:28.727Z,997.54
2019-01-13T11:44:29.847Z,997.54
2019-01-13T11:52:55.698Z,997.16
2019-01-13T11:53:32.069Z,997.14
2019-01-13T11:54:32.861Z,997.17
2019-01-13T11:55:34.346Z,997.14
2019-01-13T11:56:32.180Z,997.16
2019-01-13T11:57:31.959Z,997.20
2019-01-13T11:58:31.916Z,997.23
2019-01-13T11:59:31.988Z,997.26
2019-01-13T12:00:31.967Z,997.23
2019-01-13T12:01:31.815Z,997.28
2019-01-13T12:02:32.681Z,997.26
2019-01-13T12:03:31.935Z,997.26
2019-01-13T12:04:33.597Z,997.36
2019-01-13T12:05:31.671Z,997.28
2019-01-13T12:06:31.582Z,997.29
2019-01-13T12:07:31.549Z,997.13
2019-01-13T12:08:31.589Z,997.19
2019-01-13T12:09:31.524Z,997.15
2019-01-13T12:10:31.474Z,997.19
2019-01-13T12:11:31.406Z,997.17
2019-01-13T12:12:31.448Z,997.15
2019-01-13T12:13:31.335Z,997.07
2019-01-13T12:14:31.323Z,997.03
2019-01-13T12:15:31.288Z,997.01
2019-01-13T12:16:31.273Z,997.03
2019-01-13T12:17:31.266Z,996.94
2019-01-13T12:18:31.159Z,996.90
2019-01-13T12:19:31.118Z,996.91
2019-01-13T12:20:31.155Z,996.89
2019-01-13T12:21:31.148Z,996.93
2019-01-13T12:22:31.318Z,996.90